Rohrbach, Austria

3:07 AM CEST on April 19, 2015 (GMT +0200)
Kleinzell im Muehlkreis | | Change Station
CLOSE
Current Station
Personal Weather Station
Location: Edholz, OBERöSTERREICH
Elevation: 1657 ft
Nearby Weather Stations

Elev 1657 ft 48.45 °N, 14.00 °E | Updated 1 second ago

Mostly Cloudy
Mostly Cloudy
31.1 °F
Feels Like 27 °F
N
4.0
Wind Variable Wind from North
Gusts 4.9 mph

Today
High -- | Low -- °F
--% Chance of Precip.
Yesterday
High -- | Low -- °F
Precip. -- in
6:06 AM 8:00 PM
New Moon, 0% visible
Pressure 30.21 in
Visibility 6.2 miles
Clouds Mostly Cloudy 6000 ft
Windchill 27 °F
Dew Point 28 °F
Humidity 87%
Rainfall 0.00 in
Snow Depth Not available.
UV 0.0 out of 12
Pollen Not available.
Air Quality Not available.
Flu Activity Not available.
METAR LOWL 190050Z AUTO VRB01KT 9999 BKN060 04/M01 Q1023

More Conditions Fewer Conditions

Pressure 30.21 in
Visibility 6.2 miles
Clouds Mostly Cloudy 6000 ft
Windchill 27 °F
Dew Point 28 °F
Humidity 87%
Rainfall 0.00 in
Snow Depth Not available.
UV 0.0 out of 12
Pollen Not available.
Air Quality Not available.
Flu Activity Not available.
METAR LOWL 190050Z AUTO VRB01KT 9999 BKN060 04/M01 Q1023

More Conditions Fewer Conditions

10-Day Weather Forecast

Almanac

Astronomy

Apr. 19, 2015 Rise Set
Actual Time
Civil Twilight
Nautical Twilight
Astronomical Twilight
Moon
Length of Visible Light
Length of Day
Tomorrow will be .
, % of the Moon is Illuminated

Today's Extremes

Country Highs Country Lows

Community

WunderPhotos

Upload Photos

1,814,609 photos uploaded!

WunderBlogs® & News

Nearby

Air Quality

  Air Quality AQ Index Pollutant
Not available.

Snow Depth

Station Depth Elevation

Earthquake Activity

City Distance Mag. Time & Date
Minimum magnitude displayed is 2.5.

Coastal Water Temperatures

Place Temperature

Stations

Nearby Weather Stations

Station Location Temp. Windchill Dew Point Humidity Wind Precip. Elev Updated Type